.
WxDataArchive / Data Records for 2015-02-03
2015-02-02 February 2015 2015-02-04

Data Records for Tuesday, 03 February 2015

Time	Temp	Chill	HIndex	Humid	Dewpt	 Wind 	HiWind	WindDir	Rain 	Barom
-----	----	-----	------	-----	-----	------	------	-------	-----	-----
00:00	11.6	11.6	11.6	79	6.4	0	2	248	0.00	30.262 
00:05	11.4	11.4	11.4	79	6.2	0	2	248	0.00	30.262 
00:10	11.2	11.2	11.2	79	6.0	0	1	248	0.00	30.262 
00:15	11.2	11.2	11.2	80	6.3	0	2	248	0.00	30.268 
00:20	11.1	11.1	11.1	80	6.2	1	2	248	0.00	30.268 
00:25	10.9	10.9	10.9	80	6.0	0	2	248	0.00	30.268 
00:30	10.7	10.7	10.7	80	5.8	1	4	248	0.00	30.265 
00:35	10.5	10.5	10.5	80	5.6	1	3	248	0.00	30.265 
00:40	10.4	10.4	10.4	80	5.5	1	3	248	0.00	30.265 
00:45	10.2	10.2	10.2	80	5.3	0	2	248	0.00	30.268 
00:50	10.0	10.0	10.0	80	5.1	0	2	248	0.00	30.268 
00:55	9.9	9.9	9.9	80	5.0	0	2	248	0.00	30.268 
01:00	9.7	9.7	9.7	80	4.8	0	2	248	0.00	30.268 
01:05	9.7	9.7	9.7	79	4.5	1	4	270	0.00	30.268 
01:10	9.5	9.5	9.5	79	4.3	1	3	270	0.00	30.268 
01:15	9.3	9.3	9.3	79	4.1	1	3	270	0.00	30.266 
01:20	9.2	9.2	9.2	79	4.0	1	3	270	0.00	30.266 
01:25	9.2	9.2	9.2	78	3.8	1	3	270	0.00	30.266 
01:30	9.0	9.0	9.0	78	3.6	1	3	270	0.00	30.266 
01:35	8.8	8.8	8.8	78	3.4	1	5	270	0.00	30.266 
01:40	8.6	8.6	8.6	77	2.9	0	2	270	0.00	30.266 
01:45	8.4	8.4	8.4	77	2.7	1	2	270	0.00	30.261 
01:50	8.3	8.3	8.3	77	2.6	0	2	270	0.00	30.261 
01:55	7.9	7.9	7.9	77	2.2	0	2	270	0.00	30.261 
02:00	7.9	7.9	7.9	77	2.2	0	2	270	0.00	30.256 
02:05	7.7	7.7	7.7	77	2.0	0	2	270	0.00	30.256 
02:10	7.6	7.6	7.6	77	1.9	0	1	270	0.00	30.256 
02:15	7.4	7.4	7.4	77	1.7	0	2	270	0.00	30.256 
02:20	7.4	7.4	7.4	77	1.7	0	1	270	0.00	30.256 
02:25	7.2	7.2	7.2	77	1.5	0	1	270	0.00	30.256 
02:30	7.0	7.0	7.0	77	1.3	0	0	---	0.00	30.250 
02:35	6.9	6.9	6.9	77	1.2	0	1	270	0.00	30.250 
02:40	6.7	6.7	6.7	77	1.0	0	1	270	0.00	30.250 
02:45	6.7	6.7	6.7	77	1.0	0	1	270	0.00	30.244 
02:50	6.7	6.7	6.7	78	1.3	0	1	270	0.00	30.244 
02:55	6.9	6.9	6.9	78	1.5	0	1	270	0.00	30.244 
03:00	7.0	7.0	7.0	78	1.6	0	0	---	0.00	30.235 
03:05	7.0	7.0	7.0	78	1.6	0	1	270	0.00	30.235 
03:10	7.4	7.4	7.4	79	2.3	0	1	270	0.00	30.235 
03:15	7.6	7.6	7.6	78	2.2	0	0	---	0.00	30.235 
03:20	7.6	7.6	7.6	79	2.5	0	1	270	0.00	30.235 
03:25	7.7	7.7	7.7	78	2.3	0	1	270	0.00	30.235 
03:30	7.9	7.9	7.9	78	2.5	0	1	270	0.00	30.235 
03:35	8.1	8.1	8.1	78	2.7	0	0	---	0.00	30.235 
03:40	8.1	8.1	8.1	78	2.7	0	1	270	0.00	30.235 
03:45	8.1	8.1	8.1	78	2.7	0	1	270	0.00	30.242 
03:50	8.3	8.3	8.3	78	2.9	0	0	---	0.00	30.242 
03:55	8.3	8.3	8.3	77	2.6	0	1	270	0.00	30.242 
04:00	8.1	8.1	8.1	77	2.4	0	0	---	0.00	30.245 
04:05	7.9	7.9	7.9	77	2.2	0	1	270	0.00	30.245 
04:10	7.9	7.9	7.9	77	2.2	0	1	270	0.00	30.245 
04:15	7.7	7.7	7.7	77	2.0	0	1	270	0.00	30.237 
04:20	7.7	7.7	7.7	77	2.0	0	1	270	0.00	30.237 
04:25	7.6	7.6	7.6	77	1.9	0	1	270	0.00	30.237 
04:30	7.4	7.4	7.4	77	1.7	0	1	270	0.00	30.239 
04:35	7.4	7.4	7.4	77	1.7	0	0	---	0.00	30.239 
04:40	7.2	7.2	7.2	77	1.5	0	1	270	0.00	30.239 
04:45	7.0	7.0	7.0	77	1.3	0	0	---	0.00	30.228 
04:50	7.0	7.0	7.0	77	1.3	0	1	270	0.00	30.228 
04:55	6.9	6.9	6.9	77	1.2	0	0	---	0.00	30.228 
05:00	6.9	6.9	6.9	77	1.2	0	0	---	0.00	30.220 
05:05	6.7	6.7	6.7	78	1.3	0	0	---	0.00	30.220 
05:10	6.5	6.5	6.5	78	1.1	0	0	---	0.00	30.220 
05:15	6.3	6.3	6.3	78	0.9	0	0	---	0.00	30.225 
05:20	6.3	6.3	6.3	78	0.9	0	0	---	0.00	30.225 
05:25	6.3	6.3	6.3	79	1.2	0	0	---	0.00	30.225 
05:30	6.3	6.3	6.3	79	1.2	0	0	---	0.00	30.235 
05:35	6.3	6.3	6.3	79	1.2	0	0	---	0.00	30.235 
05:40	6.5	6.5	6.5	80	1.7	0	0	---	0.00	30.235 
05:45	6.7	6.7	6.7	80	1.9	0	0	---	0.00	30.239 
05:50	6.7	6.7	6.7	80	1.9	0	0	---	0.00	30.239 
05:55	6.9	6.9	6.9	80	2.1	0	1	270	0.00	30.239 
06:00	7.0	7.0	7.0	81	2.4	0	0	---	0.00	30.239 
06:05	7.2	7.2	7.2	81	2.6	0	0	---	0.00	30.239 
06:10	7.2	7.2	7.2	81	2.6	0	1	270	0.00	30.239 
06:15	7.4	7.4	7.4	81	2.8	0	0	---	0.00	30.245 
06:20	7.4	7.4	7.4	81	2.8	0	0	---	0.00	30.245 
06:25	7.2	7.2	7.2	81	2.6	0	0	---	0.00	30.245 
06:30	7.2	7.2	7.2	80	2.4	0	0	---	0.00	30.239 
06:35	7.2	7.2	7.2	81	2.6	0	0	---	0.00	30.239 
06:40	7.0	7.0	7.0	81	2.4	0	0	---	0.00	30.239 
06:45	7.0	7.0	7.0	81	2.4	0	0	---	0.00	30.241 
06:50	7.0	7.0	7.0	81	2.4	0	0	---	0.00	30.241 
06:55	6.9	6.9	6.9	81	2.3	0	0	---	0.00	30.241 
07:00	6.9	6.9	6.9	81	2.3	0	0	---	0.00	30.244 
07:05	6.9	6.9	6.9	81	2.3	0	1	270	0.00	30.244 
07:10	7.0	7.0	7.0	81	2.4	0	0	---	0.00	30.244 
07:15	7.2	7.2	7.2	81	2.6	0	1	270	0.00	30.247 
07:20	7.4	7.4	7.4	82	3.1	0	0	---	0.00	30.247 
07:25	7.7	7.7	7.7	82	3.4	0	0	---	0.00	30.247 
07:30	8.1	8.1	8.1	82	3.8	0	1	270	0.00	30.250 
07:35	8.4	8.4	8.4	82	4.1	0	1	270	0.00	30.250 
07:40	8.8	8.8	8.8	83	4.7	0	1	270	0.00	30.250 
07:45	9.2	9.2	9.2	83	5.1	0	1	270	0.00	30.254 
07:50	9.3	9.3	9.3	83	5.2	0	1	270	0.00	30.254 
07:55	9.7	9.7	9.7	83	5.6	0	1	270	0.00	30.254 
08:00	9.9	9.9	9.9	83	5.8	0	0	---	0.00	30.251 
08:05	10.2	10.2	10.2	83	6.1	0	1	270	0.00	30.251 
08:10	10.5	10.5	10.5	83	6.4	0	0	---	0.00	30.251 
08:15	10.7	10.7	10.7	83	6.6	0	1	270	0.00	30.251 
08:20	11.1	11.1	11.1	83	7.0	0	1	270	0.00	30.251 
08:25	11.2	11.2	11.2	83	7.1	0	1	270	0.00	30.251 
08:30	11.6	11.6	11.6	83	7.5	0	0	---	0.00	30.256 
08:35	11.7	11.7	11.7	83	7.6	0	0	---	0.00	30.256 
08:40	12.1	12.1	12.1	83	7.9	0	0	---	0.00	30.256 
08:45	12.4	12.4	12.4	83	8.2	0	0	---	0.00	30.262 
08:50	12.6	12.6	12.6	83	8.4	0	0	---	0.00	30.262 
08:55	12.9	12.9	12.9	83	8.7	0	0	---	0.00	30.262 
09:00	13.3	13.3	13.3	82	8.9	0	0	---	0.00	30.261 
09:05	13.5	13.5	13.5	82	9.0	0	1	270	0.00	30.261 
09:10	13.8	13.8	13.8	82	9.3	0	0	---	0.00	30.261 
09:15	14.0	14.0	14.0	82	9.5	0	1	270	0.00	30.259 
09:20	14.3	14.3	14.3	82	9.8	0	0	---	0.00	30.259 
09:25	14.4	14.4	14.4	81	9.7	0	1	270	0.00	30.259 
09:30	14.8	14.8	14.8	81	10.0	0	0	---	0.00	30.261 
09:35	15.1	15.1	15.1	81	10.3	0	1	270	0.00	30.261 
09:40	15.2	15.2	15.2	81	10.4	0	1	270	0.00	30.261 
09:45	15.4	15.4	15.4	81	10.6	0	1	270	0.00	30.259 
09:50	15.7	15.7	15.7	81	10.9	0	0	---	0.00	30.259 
09:55	16.1	16.1	16.1	81	11.3	0	1	270	0.00	30.259 
10:00	16.2	16.2	16.2	81	11.4	0	0	---	0.00	30.259 
10:05	16.5	16.5	16.5	81	11.7	0	1	270	0.00	30.259 
10:10	16.9	16.9	16.9	81	12.1	0	1	270	0.00	30.259 
10:15	17.2	17.2	17.2	80	12.1	0	1	270	0.00	30.259 
10:20	17.3	17.3	17.3	80	12.2	0	1	270	0.00	30.259 
10:25	17.7	17.7	17.7	80	12.6	0	0	---	0.00	30.259 
10:30	18.0	18.0	18.0	80	12.9	0	2	270	0.00	30.257 
10:35	18.3	18.3	18.3	80	13.2	0	1	270	0.00	30.257 
10:40	18.6	18.6	18.6	80	13.5	0	1	270	0.00	30.257 
10:45	18.9	18.9	18.9	80	13.8	0	3	270	0.00	30.254 
10:50	19.2	19.2	19.2	80	14.1	0	1	270	0.00	30.254 
10:55	19.7	19.7	19.7	80	14.6	0	3	270	0.00	30.254 
11:00	20.2	20.2	20.2	80	15.0	0	2	270	0.00	30.244 
11:05	20.6	20.6	20.6	80	15.4	0	1	270	0.00	30.244 
11:10	21.1	21.1	21.1	80	15.9	0	2	270	0.00	30.244 
11:15	21.6	21.6	21.6	79	16.1	0	3	270	0.00	30.245 
11:20	22.1	22.1	22.1	79	16.6	0	3	270	0.00	30.245 
11:25	22.4	22.4	22.4	79	16.9	1	3	270	0.00	30.245 
11:30	22.5	22.5	22.5	78	16.7	1	3	248	0.00	30.249 
11:35	22.7	22.7	22.7	78	16.9	0	2	248	0.00	30.249 
11:40	23.2	23.2	23.2	78	17.4	0	2	248	0.00	30.249 
11:45	23.5	23.5	23.5	77	17.4	0	2	248	0.00	30.247 
11:50	23.5	23.5	23.5	77	17.4	1	3	248	0.00	30.247 
11:55	23.5	23.5	23.5	76	17.1	1	3	270	0.00	30.247 
12:00	23.5	23.5	23.5	76	17.1	1	3	270	0.00	30.253 
12:05	23.6	23.6	23.6	77	17.5	0	1	270	0.00	30.253 
12:10	23.9	23.9	23.9	77	17.8	1	4	270	0.00	30.253 
12:15	24.1	24.1	24.1	77	18.0	0	2	270	0.00	30.250 
12:20	24.2	24.2	24.2	76	17.7	2	4	270	0.00	30.250 
12:25	24.1	24.1	24.1	76	17.7	2	3	248	0.00	30.250 
12:30	24.2	24.2	24.2	76	17.7	1	4	248	0.00	30.244 
12:35	24.4	24.4	24.4	76	17.9	1	4	225	0.00	30.244 
12:40	24.7	24.7	24.7	77	18.5	1	4	225	0.00	30.244 
12:45	24.8	24.8	24.8	76	18.3	0	2	248	0.00	30.241 
12:50	25.0	25.0	25.0	76	18.5	1	3	248	0.00	30.241 
12:55	25.0	25.0	25.0	75	18.2	1	4	270	0.00	30.241 
13:00	25.1	25.1	25.1	76	18.6	1	3	270	0.00	30.232 
13:05	25.3	25.3	25.3	76	18.8	1	3	225	0.00	30.232 
13:10	25.4	25.4	25.4	75	18.6	1	3	270	0.00	30.232 
13:15	25.6	25.6	25.6	75	18.8	1	3	225	0.00	30.228 
13:20	25.7	25.7	25.7	75	18.9	1	2	248	0.00	30.228 
13:25	25.8	25.8	25.8	74	18.7	0	2	248	0.00	30.228 
13:30	25.8	25.8	25.8	74	18.7	1	3	248	0.00	30.225 
13:35	26.0	26.0	26.0	74	18.9	1	3	248	0.00	30.225 
13:40	26.0	26.0	26.0	74	18.9	1	4	248	0.00	30.225 
13:45	25.8	25.8	25.8	73	18.4	1	4	270	0.00	30.212 
13:50	25.8	25.8	25.8	74	18.7	0	3	270	0.00	30.212 
13:55	26.1	26.1	26.1	74	19.0	1	3	270	0.00	30.212 
14:00	26.3	26.3	26.3	73	18.8	1	3	270	0.00	30.208 
14:05	26.4	26.4	26.4	73	18.9	0	2	270	0.00	30.208 
14:10	26.7	26.7	26.7	73	19.2	0	2	270	0.00	30.208 
14:15	26.9	26.9	26.9	73	19.4	0	2	270	0.00	30.194 
14:20	26.9	26.9	26.9	73	19.4	0	2	225	0.00	30.194 
14:25	26.9	26.9	26.9	73	19.4	1	3	225	0.00	30.194 
14:30	26.9	26.9	26.9	72	19.1	1	2	248	0.00	30.181 
14:35	27.0	27.0	27.0	73	19.5	0	3	270	0.00	30.181 
14:40	27.0	27.0	27.0	72	19.2	0	2	315	0.00	30.181 
14:45	27.2	27.2	27.2	73	19.7	1	2	270	0.00	30.172 
14:50	27.3	27.3	27.3	73	19.8	0	2	270	0.00	30.172 
14:55	27.3	27.3	27.3	72	19.5	1	10	112	0.00	30.172 
15:00	27.3	27.3	27.3	72	19.5	1	4	112	0.00	30.165 
15:05	27.5	27.5	27.5	72	19.7	1	4	270	0.00	30.165 
15:10	27.5	27.5	27.5	72	19.7	1	2	270	0.00	30.165 
15:15	27.6	27.6	27.6	72	19.8	1	3	270	0.00	30.171 
15:20	27.6	27.6	27.6	70	19.1	1	4	270	0.00	30.171 
15:25	27.5	27.5	27.5	71	19.4	1	3	270	0.00	30.171 
15:30	27.5	27.5	27.5	71	19.4	1	3	270	0.00	30.180 
15:35	27.5	27.5	27.5	71	19.4	1	3	270	0.00	30.180 
15:40	27.6	27.6	27.6	71	19.4	1	4	270	0.00	30.180 
15:45	27.5	27.5	27.5	71	19.4	1	5	248	0.00	30.191 
15:50	27.6	27.6	27.6	72	19.8	1	4	248	0.00	30.191 
15:55	27.8	27.8	27.8	72	20.0	1	3	248	0.00	30.191 
16:00	27.6	27.6	27.6	72	19.8	1	5	270	0.00	30.179 
16:05	27.6	27.6	27.6	72	19.8	1	3	270	0.00	30.179 
16:10	27.8	27.8	27.8	72	20.0	0	2	270	0.00	30.179 
16:15	27.8	27.8	27.8	72	20.0	0	2	270	0.00	30.174 
16:20	27.8	27.8	27.8	71	19.6	1	4	270	0.00	30.174 
16:25	27.8	27.8	27.8	72	20.0	0	2	248	0.00	30.174 
16:30	27.6	27.6	27.6	72	19.8	1	3	248	0.00	30.161 
16:35	27.5	27.5	27.5	72	19.7	1	4	68	0.00	30.161 
16:40	27.6	27.6	27.6	72	19.8	1	3	270	0.00	30.161 
16:45	27.8	27.8	27.8	72	20.0	0	1	270	0.00	30.162 
16:50	27.8	27.8	27.8	73	20.3	0	2	270	0.00	30.162 
16:55	27.6	27.6	27.6	72	19.8	0	3	292	0.00	30.162 
17:00	27.5	27.5	27.5	72	19.7	0	2	292	0.00	30.162 
17:05	27.3	27.3	27.3	73	19.8	0	1	292	0.00	30.162 
17:10	27.2	27.2	27.2	73	19.7	0	2	292	0.00	30.162 
17:15	27.0	27.0	27.0	73	19.5	0	3	292	0.00	30.160 
17:20	27.0	27.0	27.0	73	19.5	0	2	338	0.00	30.160 
17:25	26.9	26.9	26.9	74	19.7	0	0	---	0.00	30.160 
17:30	26.7	26.7	26.7	74	19.5	0	0	---	0.00	30.154 
17:35	26.6	26.6	26.6	75	19.8	0	0	---	0.00	30.154 
17:40	26.4	26.4	26.4	76	19.9	0	1	338	0.00	30.154 
17:45	26.3	26.3	26.3	76	19.8	0	0	---	0.00	30.149 
17:50	26.3	26.3	26.3	76	19.8	0	0	---	0.00	30.149 
17:55	26.1	26.1	26.1	77	19.9	0	1	338	0.00	30.149 
18:00	26.0	26.0	26.0	77	19.8	0	2	338	0.00	30.150 
18:05	26.0	26.0	26.0	77	19.8	0	0	---	0.00	30.150 
18:10	26.0	26.0	26.0	78	20.1	0	1	338	0.00	30.150 
18:15	26.0	26.0	26.0	78	20.1	0	1	338	0.00	30.144 
18:20	26.0	26.0	26.0	78	20.1	0	1	338	0.00	30.144 
18:25	26.0	26.0	26.0	79	20.4	0	1	338	0.00	30.144 
18:30	26.0	26.0	26.0	79	20.4	0	1	338	0.00	30.133 
18:35	26.1	26.1	26.1	79	20.5	0	2	338	0.00	30.133 
18:40	26.1	26.1	26.1	79	20.5	0	1	338	0.00	30.133 
18:45	26.3	26.3	26.3	79	20.7	0	1	338	0.00	30.128 
18:50	26.3	26.3	26.3	80	21.0	0	1	338	0.00	30.128 
18:55	26.3	26.3	26.3	81	21.3	0	1	338	0.00	30.128 
19:00	26.1	26.1	26.1	82	21.4	0	0	---	0.00	30.132 
19:05	26.1	26.1	26.1	83	21.7	0	0	---	0.00	30.132 
19:10	26.0	26.0	26.0	84	21.8	0	1	338	0.00	30.132 
19:15	26.0	26.0	26.0	85	22.1	0	1	338	0.00	30.138 
19:20	26.0	26.0	26.0	85	22.1	0	0	---	0.00	30.138 
19:25	26.0	26.0	26.0	86	22.4	0	0	---	0.00	30.138 
19:30	26.0	26.0	26.0	86	22.4	0	0	---	0.00	30.143 
19:35	26.1	26.1	26.1	87	22.8	0	1	338	0.00	30.143 
19:40	26.1	26.1	26.1	88	23.0	0	1	338	0.00	30.143 
19:45	26.1	26.1	26.1	88	23.0	0	1	338	0.00	30.133 
19:50	26.1	26.1	26.1	88	23.0	0	0	---	0.00	30.133 
19:55	26.1	26.1	26.1	89	23.3	0	0	---	0.00	30.133 
20:00	26.3	26.3	26.3	89	23.5	0	1	338	0.00	30.131 
20:05	26.3	26.3	26.3	89	23.5	0	0	---	0.00	30.131 
20:10	26.3	26.3	26.3	89	23.5	0	0	---	0.00	30.131 
20:15	26.3	26.3	26.3	90	23.8	0	1	338	0.00	30.127 
20:20	26.4	26.4	26.4	90	23.9	0	1	338	0.00	30.127 
20:25	26.4	26.4	26.4	90	23.9	0	1	338	0.00	30.127 
20:30	26.4	26.4	26.4	90	23.9	0	0	---	0.00	30.123 
20:35	26.4	26.4	26.4	90	23.9	0	0	---	0.00	30.123 
20:40	26.4	26.4	26.4	90	23.9	0	0	---	0.00	30.123 
20:45	26.4	26.4	26.4	90	23.9	0	1	338	0.00	30.111 
20:50	26.4	26.4	26.4	90	23.9	0	0	---	0.00	30.111 
20:55	26.6	26.6	26.6	90	24.1	0	0	---	0.00	30.111 
21:00	26.6	26.6	26.6	91	24.3	0	1	338	0.00	30.103 
21:05	26.6	26.6	26.6	91	24.3	0	0	---	0.00	30.103 
21:10	26.6	26.6	26.6	91	24.3	0	0	---	0.00	30.103 
21:15	26.6	26.6	26.6	91	24.3	0	0	---	0.00	30.097 
21:20	26.6	26.6	26.6	91	24.3	0	0	---	0.00	30.097 
21:25	26.6	26.6	26.6	91	24.3	0	0	---	0.00	30.097 
21:30	26.6	26.6	26.6	91	24.3	0	0	---	0.00	30.095 
21:35	26.6	26.6	26.6	91	24.3	0	0	---	0.00	30.095 
21:40	26.6	26.6	26.6	91	24.3	0	0	---	0.00	30.095 
21:45	26.6	26.6	26.6	91	24.3	0	0	---	0.00	30.094 
21:50	26.6	26.6	26.6	91	24.3	0	0	---	0.00	30.094 
21:55	26.6	26.6	26.6	91	24.3	0	0	---	0.00	30.094 
22:00	26.6	26.6	26.6	91	24.3	0	0	---	0.00	30.099 
22:05	26.6	26.6	26.6	91	24.3	0	0	---	0.00	30.099 
22:10	26.7	26.7	26.7	91	24.4	0	0	---	0.00	30.099 
22:15	26.7	26.7	26.7	91	24.4	0	0	---	0.00	30.103 
22:20	26.9	26.9	26.9	91	24.6	0	0	---	0.00	30.103 
22:25	26.9	26.9	26.9	91	24.6	0	0	---	0.00	30.103 
22:30	26.9	26.9	26.9	91	24.6	0	0	---	0.00	30.104 
22:35	26.9	26.9	26.9	91	24.6	0	0	---	0.00	30.104 
22:40	26.9	26.9	26.9	91	24.6	0	0	---	0.00	30.104 
22:45	27.0	27.0	27.0	91	24.7	0	0	---	0.00	30.096 
22:50	27.0	27.0	27.0	91	24.7	0	0	---	0.00	30.096 
22:55	27.2	27.2	27.2	91	24.9	0	0	---	0.00	30.096 
23:00	27.3	27.3	27.3	91	25.0	0	1	338	0.00	30.085 
23:05	27.6	27.6	27.6	91	25.3	0	1	338	0.00	30.085 
23:10	27.9	27.9	27.9	91	25.6	0	0	---	0.00	30.085 
23:15	28.1	28.1	28.1	91	25.8	0	0	---	0.00	30.071 
23:20	28.4	28.4	28.4	91	26.1	0	0	---	0.00	30.071 
23:25	28.5	28.5	28.5	90	25.9	0	1	338	0.00	30.071 
23:30	28.8	28.8	28.8	90	26.2	0	1	338	0.00	30.065 
23:35	29.0	29.0	29.0	89	26.2	0	1	338	0.00	30.065 
23:40	29.3	29.3	29.3	88	26.2	0	1	338	0.00	30.065 
23:45	29.4	29.4	29.4	88	26.3	0	1	338	0.00	30.062 
23:50	29.7	29.7	29.7	86	26.0	0	1	338	0.00	30.062 
23:55	29.8	29.8	29.8	86	26.1	0	2	248	0.00	30.062 

CoCoRaHS
IN-AL-39
A2 Web Hosting
Creative Commons License
GoDaddy
search engine by freefind advanced

loaded 2018-11-19 10:19:13 • last modified 2010-11-18 10:43:29
Privacy PolicyDisclaimer
• wx.awcolley.com is powered by PmWiki v.2002016 •
• all content (unless otherwise noted) © 2018 A W Colley